sensor_id;sensor_type;location;lat;lon;timestamp;temperature;humidity
20520;DHT22;53432;51.952;14.740;2022-11-24T00:01:09;15.60;99.90
20520;DHT22;53432;51.952;14.740;2022-11-24T00:03:37;15.60;99.90
20520;DHT22;53432;51.952;14.740;2022-11-24T00:06:05;15.60;99.90
20520;DHT22;53432;51.952;14.740;2022-11-24T00:08:35;15.60;99.90
20520;DHT22;53432;51.952;14.740;2022-11-24T00:11:04;15.60;99.90
20520;DHT22;53432;51.952;14.740;2022-11-24T00:13:33;15.60;99.90
20520;DHT22;53432;51.952;14.740;2022-11-24T00:16:08;15.60;99.90
20520;DHT22;53432;51.952;14.740;2022-11-24T00:18:36;15.70;99.90
20520;DHT22;53432;51.952;14.740;2022-11-24T00:21:04;15.70;99.90
20520;DHT22;53432;51.952;14.740;2022-11-24T00:23:33;15.70;99.90
20520;DHT22;53432;51.952;14.740;2022-11-24T00:26:05;15.80;99.90
20520;DHT22;53432;51.952;14.740;2022-11-24T00:28:34;15.80;99.90
20520;DHT22;53432;51.952;14.740;2022-11-24T00:31:02;15.80;99.90
20520;DHT22;53432;51.952;14.740;2022-11-24T00:33:31;15.90;99.90
20520;DHT22;53432;51.952;14.740;2022-11-24T00:35:59;15.90;99.90
20520;DHT22;53432;51.952;14.740;2022-11-24T00:38:26;15.90;99.90
20520;DHT22;53432;51.952;14.740;2022-11-24T00:40:55;15.90;99.90
20520;DHT22;53432;51.952;14.740;2022-11-24T00:43:23;16.00;99.90
20520;DHT22;53432;51.952;14.740;2022-11-24T00:45:50;16.00;99.90
20520;DHT22;53432;51.952;14.740;2022-11-24T00:48:18;16.00;99.90
20520;DHT22;53432;51.952;14.740;2022-11-24T00:50:54;16.00;99.90
20520;DHT22;53432;51.952;14.740;2022-11-24T00:53:22;16.10;99.90
20520;DHT22;53432;51.952;14.740;2022-11-24T00:55:50;16.10;99.90
20520;DHT22;53432;51.952;14.740;2022-11-24T00:58:19;16.10;99.90
20520;DHT22;53432;51.952;14.740;2022-11-24T01:00:47;16.20;99.90
20520;DHT22;53432;51.952;14.740;2022-11-24T01:03:15;16.20;99.90
20520;DHT22;53432;51.952;14.740;2022-11-24T01:05:43;16.30;99.90
20520;DHT22;53432;51.952;14.740;2022-11-24T01:08:10;16.30;99.90
20520;DHT22;53432;51.952;14.740;2022-11-24T01:10:37;16.40;99.90
20520;DHT22;53432;51.952;14.740;2022-11-24T01:13:05;16.40;99.90
20520;DHT22;53432;51.952;14.740;2022-11-24T01:15:35;16.50;99.90
20520;DHT22;53432;51.952;14.740;2022-11-24T01:18:03;16.60;99.90
20520;DHT22;53432;51.952;14.740;2022-11-24T01:20:31;16.60;99.90
20520;DHT22;53432;51.952;14.740;2022-11-24T01:22:59;16.70;99.90
20520;DHT22;53432;51.952;14.740;2022-11-24T01:25:26;16.80;99.90
20520;DHT22;53432;51.952;14.740;2022-11-24T01:27:54;16.80;99.90
20520;DHT22;53432;51.952;14.740;2022-11-24T01:30:21;16.90;99.90
20520;DHT22;53432;51.952;14.740;2022-11-24T01:32:50;16.90;99.90
20520;DHT22;53432;51.952;14.740;2022-11-24T01:35:17;17.00;99.90
20520;DHT22;53432;51.952;14.740;2022-11-24T01:37:45;17.10;99.90
20520;DHT22;53432;51.952;14.740;2022-11-24T01:40:12;17.10;99.90
20520;DHT22;53432;51.952;14.740;2022-11-24T01:42:45;17.20;99.90
20520;DHT22;53432;51.952;14.740;2022-11-24T01:45:34;17.20;99.90
20520;DHT22;53432;51.952;14.740;2022-11-24T01:48:14;17.20;99.90
20520;DHT22;53432;51.952;14.740;2022-11-24T01:50:42;17.30;99.90
20520;DHT22;53432;51.952;14.740;2022-11-24T01:53:11;17.30;99.90
20520;DHT22;53432;51.952;14.740;2022-11-24T01:55:40;17.30;99.90
20520;DHT22;53432;51.952;14.740;2022-11-24T01:58:12;17.30;99.90
20520;DHT22;53432;51.952;14.740;2022-11-24T02:00:44;17.30;99.90
20520;DHT22;53432;51.952;14.740;2022-11-24T02:03:15;17.30;99.90
20520;DHT22;53432;51.952;14.740;2022-11-24T02:05:48;17.30;99.90
20520;DHT22;53432;51.952;14.740;2022-11-24T02:08:21;17.30;99.90
20520;DHT22;53432;51.952;14.740;2022-11-24T02:10:53;17.20;99.90
20520;DHT22;53432;51.952;14.740;2022-11-24T02:13:21;17.20;99.90
20520;DHT22;53432;51.952;14.740;2022-11-24T02:15:49;17.20;99.90
20520;DHT22;53432;51.952;14.740;2022-11-24T02:18:20;17.20;99.90
20520;DHT22;53432;51.952;14.740;2022-11-24T02:20:47;17.10;99.90
20520;DHT22;53432;51.952;14.740;2022-11-24T02:23:21;17.10;99.90
20520;DHT22;53432;51.952;14.740;2022-11-24T02:25:57;17.10;99.90
20520;DHT22;53432;51.952;14.740;2022-11-24T02:28:28;17.00;99.90
20520;DHT22;53432;51.952;14.740;2022-11-24T02:30:57;17.00;99.90
20520;DHT22;53432;51.952;14.740;2022-11-24T02:33:25;16.90;99.90
20520;DHT22;53432;51.952;14.740;2022-11-24T02:35:53;16.90;99.90
20520;DHT22;53432;51.952;14.740;2022-11-24T02:38:28;16.80;99.90
20520;DHT22;53432;51.952;14.740;2022-11-24T02:40:59;16.70;99.90
20520;DHT22;53432;51.952;14.740;2022-11-24T02:43:30;16.70;99.90
20520;DHT22;53432;51.952;14.740;2022-11-24T02:45:58;16.70;99.90
20520;DHT22;53432;51.952;14.740;2022-11-24T02:48:26;16.60;99.90
20520;DHT22;53432;51.952;14.740;2022-11-24T02:50:53;16.60;99.90
20520;DHT22;53432;51.952;14.740;2022-11-24T02:53:21;16.50;99.90
20520;DHT22;53432;51.952;14.740;2022-11-24T02:55:48;16.50;99.90
20520;DHT22;53432;51.952;14.740;2022-11-24T02:58:15;16.40;99.90
20520;DHT22;53432;51.952;14.740;2022-11-24T03:00:44;16.40;99.90
20520;DHT22;53432;51.952;14.740;2022-11-24T03:03:12;16.40;99.90
20520;DHT22;53432;51.952;14.740;2022-11-24T03:05:39;16.30;99.90
20520;DHT22;53432;51.952;14.740;2022-11-24T03:08:07;16.20;99.90
20520;DHT22;53432;51.952;14.740;2022-11-24T03:10:34;16.20;99.90
20520;DHT22;53432;51.952;14.740;2022-11-24T03:13:02;16.20;99.90
20520;DHT22;53432;51.952;14.740;2022-11-24T03:15:29;16.10;99.90
20520;DHT22;53432;51.952;14.740;2022-11-24T03:17:58;16.10;99.90
20520;DHT22;53432;51.952;14.740;2022-11-24T03:20:26;16.10;99.90
20520;DHT22;53432;51.952;14.740;2022-11-24T03:22:53;16.00;99.90
20520;DHT22;53432;51.952;14.740;2022-11-24T03:25:21;16.10;99.90
20520;DHT22;53432;51.952;14.740;2022-11-24T03:27:48;16.00;99.90
20520;DHT22;53432;51.952;14.740;2022-11-24T03:30:16;16.00;99.90
20520;DHT22;53432;51.952;14.740;2022-11-24T03:32:43;15.90;99.90
20520;DHT22;53432;51.952;14.740;2022-11-24T03:35:12;15.90;99.90
20520;DHT22;53432;51.952;14.740;2022-11-24T03:37:40;15.90;99.90
20520;DHT22;53432;51.952;14.740;2022-11-24T03:40:08;15.90;99.90
20520;DHT22;53432;51.952;14.740;2022-11-24T03:42:36;15.80;99.90
20520;DHT22;53432;51.952;14.740;2022-11-24T03:45:04;15.80;99.90
20520;DHT22;53432;51.952;14.740;2022-11-24T03:47:31;15.70;99.90
20520;DHT22;53432;51.952;14.740;2022-11-24T03:49:59;15.70;99.90
20520;DHT22;53432;51.952;14.740;2022-11-24T03:52:28;15.70;99.90
20520;DHT22;53432;51.952;14.740;2022-11-24T03:54:55;15.60;99.90
20520;DHT22;53432;51.952;14.740;2022-11-24T03:57:23;15.70;99.90
20520;DHT22;53432;51.952;14.740;2022-11-24T03:59:50;15.70;99.90
20520;DHT22;53432;51.952;14.740;2022-11-24T04:02:18;15.70;99.90
20520;DHT22;53432;51.952;14.740;2022-11-24T04:04:45;15.70;99.90
20520;DHT22;53432;51.952;14.740;2022-11-24T04:07:15;15.70;99.90
20520;DHT22;53432;51.952;14.740;2022-11-24T04:09:45;15.70;99.90
20520;DHT22;53432;51.952;14.740;2022-11-24T04:12:12;15.80;99.90
20520;DHT22;53432;51.952;14.740;2022-11-24T04:14:57;15.80;99.90
20520;DHT22;53432;51.952;14.740;2022-11-24T04:17:24;15.80;99.90
20520;DHT22;53432;51.952;14.740;2022-11-24T04:19:52;15.80;99.90
20520;DHT22;53432;51.952;14.740;2022-11-24T04:22:19;15.90;99.90
20520;DHT22;53432;51.952;14.740;2022-11-24T04:24:48;15.90;99.90
20520;DHT22;53432;51.952;14.740;2022-11-24T04:27:15;15.90;99.90
20520;DHT22;53432;51.952;14.740;2022-11-24T04:29:43;15.90;99.90
20520;DHT22;53432;51.952;14.740;2022-11-24T04:32:10;16.00;99.90
20520;DHT22;53432;51.952;14.740;2022-11-24T04:34:38;16.00;99.90
20520;DHT22;53432;51.952;14.740;2022-11-24T04:37:05;16.00;99.90
20520;DHT22;53432;51.952;14.740;2022-11-24T04:39:33;16.10;99.90
20520;DHT22;53432;51.952;14.740;2022-11-24T04:42:02;16.10;99.90
20520;DHT22;53432;51.952;14.740;2022-11-24T04:44:29;16.10;99.90
20520;DHT22;53432;51.952;14.740;2022-11-24T04:46:57;16.20;99.90
20520;DHT22;53432;51.952;14.740;2022-11-24T04:49:24;16.20;99.90
20520;DHT22;53432;51.952;14.740;2022-11-24T04:51:52;16.20;99.90
20520;DHT22;53432;51.952;14.740;2022-11-24T04:54:19;16.30;99.90
20520;DHT22;53432;51.952;14.740;2022-11-24T04:56:49;16.30;99.90
20520;DHT22;53432;51.952;14.740;2022-11-24T04:59:19;16.40;99.90
20520;DHT22;53432;51.952;14.740;2022-11-24T05:01:46;16.50;99.90
20520;DHT22;53432;51.952;14.740;2022-11-24T05:04:14;16.50;99.90
20520;DHT22;53432;51.952;14.740;2022-11-24T05:06:42;16.60;99.90
20520;DHT22;53432;51.952;14.740;2022-11-24T05:09:13;16.60;99.90
20520;DHT22;53432;51.952;14.740;2022-11-24T05:11:41;16.70;99.90
20520;DHT22;53432;51.952;14.740;2022-11-24T05:14:08;16.80;99.90
20520;DHT22;53432;51.952;14.740;2022-11-24T05:16:37;16.90;99.90
20520;DHT22;53432;51.952;14.740;2022-11-24T05:19:04;16.80;99.90
20520;DHT22;53432;51.952;14.740;2022-11-24T05:21:32;16.90;99.90
20520;DHT22;53432;51.952;14.740;2022-11-24T05:23:59;17.00;99.90
20520;DHT22;53432;51.952;14.740;2022-11-24T05:26:27;17.00;99.90
20520;DHT22;53432;51.952;14.740;2022-11-24T05:28:54;17.10;99.90
20520;DHT22;53432;51.952;14.740;2022-11-24T05:31:22;17.10;99.90
20520;DHT22;53432;51.952;14.740;2022-11-24T05:33:51;17.20;99.90
20520;DHT22;53432;51.952;14.740;2022-11-24T05:36:18;17.20;99.90
20520;DHT22;53432;51.952;14.740;2022-11-24T05:39:03;17.30;99.90
20520;DHT22;53432;51.952;14.740;2022-11-24T05:41:30;17.30;99.90
20520;DHT22;53432;51.952;14.740;2022-11-24T05:43:58;17.30;99.90
20520;DHT22;53432;51.952;14.740;2022-11-24T05:46:25;17.30;99.90
20520;DHT22;53432;51.952;14.740;2022-11-24T05:48:54;17.30;99.90
20520;DHT22;53432;51.952;14.740;2022-11-24T05:51:21;17.30;99.90
20520;DHT22;53432;51.952;14.740;2022-11-24T05:53:49;17.40;99.90
20520;DHT22;53432;51.952;14.740;2022-11-24T05:56:16;17.30;99.90
20520;DHT22;53432;51.952;14.740;2022-11-24T05:58:44;17.30;99.90
20520;DHT22;53432;51.952;14.740;2022-11-24T06:01:11;17.30;99.90
20520;DHT22;53432;51.952;14.740;2022-11-24T06:03:39;17.30;99.90
20520;DHT22;53432;51.952;14.740;2022-11-24T06:06:08;17.30;99.90
20520;DHT22;53432;51.952;14.740;2022-11-24T06:08:35;17.20;99.90
20520;DHT22;53432;51.952;14.740;2022-11-24T06:11:02;17.20;99.90
20520;DHT22;53432;51.952;14.740;2022-11-24T06:13:44;17.10;99.90
20520;DHT22;53432;51.952;14.740;2022-11-24T06:16:12;17.10;99.90
20520;DHT22;53432;51.952;14.740;2022-11-24T06:18:39;17.00;99.90
20520;DHT22;53432;51.952;14.740;2022-11-24T06:21:08;17.00;99.90
20520;DHT22;53432;51.952;14.740;2022-11-24T06:23:36;17.00;99.90
20520;DHT22;53432;51.952;14.740;2022-11-24T06:26:03;16.90;99.90
20520;DHT22;53432;51.952;14.740;2022-11-24T06:28:31;16.90;99.90
20520;DHT22;53432;51.952;14.740;2022-11-24T06:31:02;16.80;99.90
20520;DHT22;53432;51.952;14.740;2022-11-24T06:33:30;16.70;99.90
20520;DHT22;53432;51.952;14.740;2022-11-24T06:36:00;16.70;99.90
20520;DHT22;53432;51.952;14.740;2022-11-24T06:38:30;16.70;99.90
20520;DHT22;53432;51.952;14.740;2022-11-24T06:40:59;16.60;99.90
20520;DHT22;53432;51.952;14.740;2022-11-24T06:43:26;16.60;99.90
20520;DHT22;53432;51.952;14.740;2022-11-24T06:45:54;16.50;99.90
20520;DHT22;53432;51.952;14.740;2022-11-24T06:48:22;16.50;99.90
20520;DHT22;53432;51.952;14.740;2022-11-24T06:50:51;16.40;99.90
20520;DHT22;53432;51.952;14.740;2022-11-24T06:53:19;16.40;99.90
20520;DHT22;53432;51.952;14.740;2022-11-24T06:55:48;16.30;99.90
20520;DHT22;53432;51.952;14.740;2022-11-24T06:58:15;16.30;99.90
20520;DHT22;53432;51.952;14.740;2022-11-24T07:00:43;16.20;99.90
20520;DHT22;53432;51.952;14.740;2022-11-24T07:03:14;16.20;99.90
20520;DHT22;53432;51.952;14.740;2022-11-24T07:05:42;16.10;99.90
20520;DHT22;53432;51.952;14.740;2022-11-24T07:08:09;16.10;99.90
20520;DHT22;53432;51.952;14.740;2022-11-24T07:10:37;16.00;99.90
20520;DHT22;53432;51.952;14.740;2022-11-24T07:13:07;16.00;99.90
20520;DHT22;53432;51.952;14.740;2022-11-24T07:15:35;16.00;99.90
20520;DHT22;53432;51.952;14.740;2022-11-24T07:18:02;16.00;99.90
20520;DHT22;53432;51.952;14.740;2022-11-24T07:20:30;15.90;99.90
20520;DHT22;53432;51.952;14.740;2022-11-24T07:22:58;15.90;99.90
20520;DHT22;53432;51.952;14.740;2022-11-24T07:25:25;15.90;99.90
20520;DHT22;53432;51.952;14.740;2022-11-24T07:27:55;15.80;99.90
20520;DHT22;53432;51.952;14.740;2022-11-24T07:30:24;15.80;99.90
20520;DHT22;53432;51.952;14.740;2022-11-24T07:32:57;15.70;99.90
20520;DHT22;53432;51.952;14.740;2022-11-24T07:35:25;15.70;99.90
20520;DHT22;53432;51.952;14.740;2022-11-24T07:37:54;15.70;99.90
20520;DHT22;53432;51.952;14.740;2022-11-24T07:40:21;15.70;99.90
20520;DHT22;53432;51.952;14.740;2022-11-24T07:42:49;15.60;99.90
20520;DHT22;53432;51.952;14.740;2022-11-24T07:45:16;15.70;99.90
20520;DHT22;53432;51.952;14.740;2022-11-24T07:47:45;15.70;99.90
20520;DHT22;53432;51.952;14.740;2022-11-24T07:50:13;15.70;99.90
20520;DHT22;53432;51.952;14.740;2022-11-24T07:52:40;15.70;99.90
20520;DHT22;53432;51.952;14.740;2022-11-24T07:55:08;15.70;99.90
20520;DHT22;53432;51.952;14.740;2022-11-24T07:57:36;15.70;99.90
20520;DHT22;53432;51.952;14.740;2022-11-24T08:00:04;15.80;99.90
20520;DHT22;53432;51.952;14.740;2022-11-24T08:02:32;15.80;99.90
20520;DHT22;53432;51.952;14.740;2022-11-24T08:05:01;15.80;99.90
20520;DHT22;53432;51.952;14.740;2022-11-24T08:07:28;15.80;99.90
20520;DHT22;53432;51.952;14.740;2022-11-24T08:09:56;15.90;99.90
20520;DHT22;53432;51.952;14.740;2022-11-24T08:12:23;15.90;99.90
20520;DHT22;53432;51.952;14.740;2022-11-24T08:14:51;15.90;99.90
20520;DHT22;53432;51.952;14.740;2022-11-24T08:17:18;15.90;99.90
20520;DHT22;53432;51.952;14.740;2022-11-24T08:19:46;16.00;99.90
20520;DHT22;53432;51.952;14.740;2022-11-24T08:22:15;16.00;99.90
20520;DHT22;53432;51.952;14.740;2022-11-24T08:24:42;16.00;99.90
20520;DHT22;53432;51.952;14.740;2022-11-24T08:27:12;16.10;99.90
20520;DHT22;53432;51.952;14.740;2022-11-24T08:29:40;16.10;99.90
20520;DHT22;53432;51.952;14.740;2022-11-24T08:32:08;16.10;99.90
20520;DHT22;53432;51.952;14.740;2022-11-24T08:34:36;16.10;99.90
20520;DHT22;53432;51.952;14.740;2022-11-24T08:37:04;16.20;99.90
20520;DHT22;53432;51.952;14.740;2022-11-24T08:39:33;16.20;99.90
20520;DHT22;53432;51.952;14.740;2022-11-24T08:42:01;16.30;99.90
20520;DHT22;53432;51.952;14.740;2022-11-24T08:44:28;16.40;99.90
20520;DHT22;53432;51.952;14.740;2022-11-24T08:46:55;16.40;99.90
20520;DHT22;53432;51.952;14.740;2022-11-24T08:49:23;16.50;99.90
20520;DHT22;53432;51.952;14.740;2022-11-24T08:51:50;16.60;99.90
20520;DHT22;53432;51.952;14.740;2022-11-24T08:54:18;16.60;99.90
20520;DHT22;53432;51.952;14.740;2022-11-24T08:56:48;16.70;99.90
20520;DHT22;53432;51.952;14.740;2022-11-24T08:59:15;16.70;99.90
20520;DHT22;53432;51.952;14.740;2022-11-24T09:01:43;16.80;99.90
20520;DHT22;53432;51.952;14.740;2022-11-24T09:04:10;16.90;99.90
20520;DHT22;53432;51.952;14.740;2022-11-24T09:06:38;16.90;99.90
20520;DHT22;53432;51.952;14.740;2022-11-24T09:09:05;16.90;99.90
20520;DHT22;53432;51.952;14.740;2022-11-24T09:11:33;17.00;99.90
20520;DHT22;53432;51.952;14.740;2022-11-24T09:14:02;17.00;99.90
20520;DHT22;53432;51.952;14.740;2022-11-24T09:16:29;17.00;99.90
20520;DHT22;53432;51.952;14.740;2022-11-24T09:18:59;17.00;99.90
20520;DHT22;53432;51.952;14.740;2022-11-24T09:21:27;17.00;99.90
20520;DHT22;53432;51.952;14.740;2022-11-24T09:23:54;17.00;99.90
20520;DHT22;53432;51.952;14.740;2022-11-24T09:26:23;17.00;99.90
20520;DHT22;53432;51.952;14.740;2022-11-24T09:28:52;16.90;99.90
20520;DHT22;53432;51.952;14.740;2022-11-24T09:31:23;16.90;99.90
20520;DHT22;53432;51.952;14.740;2022-11-24T09:33:51;16.90;99.90
20520;DHT22;53432;51.952;14.740;2022-11-24T09:36:19;16.90;99.90
20520;DHT22;53432;51.952;14.740;2022-11-24T09:38:47;16.80;99.90
20520;DHT22;53432;51.952;14.740;2022-11-24T09:41:30;16.80;99.90
20520;DHT22;53432;51.952;14.740;2022-11-24T09:44:04;16.70;99.90
20520;DHT22;53432;51.952;14.740;2022-11-24T09:46:42;16.70;99.90
20520;DHT22;53432;51.952;14.740;2022-11-24T09:49:13;16.60;99.90
20520;DHT22;53432;51.952;14.740;2022-11-24T09:51:44;16.60;99.90
20520;DHT22;53432;51.952;14.740;2022-11-24T09:54:17;16.60;99.90
20520;DHT22;53432;51.952;14.740;2022-11-24T09:56:46;16.50;99.90
20520;DHT22;53432;51.952;14.740;2022-11-24T09:59:15;16.50;99.90
20520;DHT22;53432;51.952;14.740;2022-11-24T10:01:46;16.50;99.90
20520;DHT22;53432;51.952;14.740;2022-11-24T10:04:17;16.40;99.90
20520;DHT22;53432;51.952;14.740;2022-11-24T10:06:50;16.40;99.90
20520;DHT22;53432;51.952;14.740;2022-11-24T10:09:30;16.30;99.90
20520;DHT22;53432;51.952;14.740;2022-11-24T10:12:12;16.30;99.90
20520;DHT22;53432;51.952;14.740;2022-11-24T10:14:55;16.30;99.90
20520;DHT22;53432;51.952;14.740;2022-11-24T10:17:41;16.20;99.90
20520;DHT22;53432;51.952;14.740;2022-11-24T10:20:19;16.20;99.90
20520;DHT22;53432;51.952;14.740;2022-11-24T10:22:56;16.10;99.90
20520;DHT22;53432;51.952;14.740;2022-11-24T10:25:29;16.10;99.90
20520;DHT22;53432;51.952;14.740;2022-11-24T10:28:03;16.00;99.90
20520;DHT22;53432;51.952;14.740;2022-11-24T10:30:31;16.00;99.90
20520;DHT22;53432;51.952;14.740;2022-11-24T10:33:02;16.00;99.90
20520;DHT22;53432;51.952;14.740;2022-11-24T10:35:36;16.00;99.90
20520;DHT22;53432;51.952;14.740;2022-11-24T10:38:25;16.00;99.90
20520;DHT22;53432;51.952;14.740;2022-11-24T10:40:58;16.00;99.90
20520;DHT22;53432;51.952;14.740;2022-11-24T10:43:28;16.00;99.90
20520;DHT22;53432;51.952;14.740;2022-11-24T10:45:59;16.00;99.90
20520;DHT22;53432;51.952;14.740;2022-11-24T10:48:40;16.00;99.90
20520;DHT22;53432;51.952;14.740;2022-11-24T10:51:31;16.00;99.90
20520;DHT22;53432;51.952;14.740;2022-11-24T10:54:06;16.00;99.90
20520;DHT22;53432;51.952;14.740;2022-11-24T10:56:39;16.10;99.90
20520;DHT22;53432;51.952;14.740;2022-11-24T10:59:21;16.10;99.90
20520;DHT22;53432;51.952;14.740;2022-11-24T11:01:48;16.10;99.90
20520;DHT22;53432;51.952;14.740;2022-11-24T11:04:19;16.10;99.90
20520;DHT22;53432;51.952;14.740;2022-11-24T11:06:47;16.10;99.90
20520;DHT22;53432;51.952;14.740;2022-11-24T11:09:19;16.20;99.90
20520;DHT22;53432;51.952;14.740;2022-11-24T11:11:48;16.20;99.90
20520;DHT22;53432;51.952;14.740;2022-11-24T11:14:29;16.20;99.90
20520;DHT22;53432;51.952;14.740;2022-11-24T11:16:57;16.30;99.90
20520;DHT22;53432;51.952;14.740;2022-11-24T11:19:34;16.30;99.90
20520;DHT22;53432;51.952;14.740;2022-11-24T11:22:04;16.30;99.90
20520;DHT22;53432;51.952;14.740;2022-11-24T11:24:32;16.40;99.90
20520;DHT22;53432;51.952;14.740;2022-11-24T11:27:00;16.40;99.90
20520;DHT22;53432;51.952;14.740;2022-11-24T11:29:29;16.50;99.90
20520;DHT22;53432;51.952;14.740;2022-11-24T11:32:02;16.60;99.90
20520;DHT22;53432;51.952;14.740;2022-11-24T11:34:34;16.60;99.90
20520;DHT22;53432;51.952;14.740;2022-11-24T11:37:02;16.70;99.90
20520;DHT22;53432;51.952;14.740;2022-11-24T11:39:33;16.70;99.90
20520;DHT22;53432;51.952;14.740;2022-11-24T11:42:15;16.80;99.90
20520;DHT22;53432;51.952;14.740;2022-11-24T11:44:47;16.90;99.90
20520;DHT22;53432;51.952;14.740;2022-11-24T11:47:23;16.90;99.90
20520;DHT22;53432;51.952;14.740;2022-11-24T11:49:53;17.00;99.90
20520;DHT22;53432;51.952;14.740;2022-11-24T11:52:42;17.00;99.90
20520;DHT22;53432;51.952;14.740;2022-11-24T11:58:26;17.20;99.90
20520;DHT22;53432;51.952;14.740;2022-11-24T12:01:01;17.20;99.90
20520;DHT22;53432;51.952;14.740;2022-11-24T12:06:38;17.30;99.90
20520;DHT22;53432;51.952;14.740;2022-11-24T12:09:16;17.40;99.90
20520;DHT22;53432;51.952;14.740;2022-11-24T12:11:58;17.40;99.90
20520;DHT22;53432;51.952;14.740;2022-11-24T12:14:32;17.40;99.90
20520;DHT22;53432;51.952;14.740;2022-11-24T12:17:07;17.40;99.90
20520;DHT22;53432;51.952;14.740;2022-11-24T12:19:48;17.40;99.90
20520;DHT22;53432;51.952;14.740;2022-11-24T12:22:27;17.40;99.90
20520;DHT22;53432;51.952;14.740;2022-11-24T12:25:17;17.40;99.90
20520;DHT22;53432;51.952;14.740;2022-11-24T12:27:53;17.40;99.90
20520;DHT22;53432;51.952;14.740;2022-11-24T12:30:23;17.40;99.90
20520;DHT22;53432;51.952;14.740;2022-11-24T12:33:31;17.40;99.90
20520;DHT22;53432;51.952;14.740;2022-11-24T12:36:05;17.30;99.90
20520;DHT22;53432;51.952;14.740;2022-11-24T12:38:44;17.30;99.90
20520;DHT22;53432;51.952;14.740;2022-11-24T12:41:26;17.30;99.90
20520;DHT22;53432;51.952;14.740;2022-11-24T12:43:57;17.20;99.90
20520;DHT22;53432;51.952;14.740;2022-11-24T12:46:33;17.20;99.90
20520;DHT22;53432;51.952;14.740;2022-11-24T12:49:11;17.20;99.90
20520;DHT22;53432;51.952;14.740;2022-11-24T12:51:43;17.10;99.90
20520;DHT22;53432;51.952;14.740;2022-11-24T12:54:16;17.10;99.90
20520;DHT22;53432;51.952;14.740;2022-11-24T12:56:49;17.10;99.90
20520;DHT22;53432;51.952;14.740;2022-11-24T12:59:28;17.00;99.90
20520;DHT22;53432;51.952;14.740;2022-11-24T13:02:03;17.00;99.90
20520;DHT22;53432;51.952;14.740;2022-11-24T13:04:43;16.90;99.90
20520;DHT22;53432;51.952;14.740;2022-11-24T13:07:14;16.90;99.90
20520;DHT22;53432;51.952;14.740;2022-11-24T13:10:27;16.80;99.90
20520;DHT22;53432;51.952;14.740;2022-11-24T13:12:55;16.80;99.90
20520;DHT22;53432;51.952;14.740;2022-11-24T13:15:23;16.70;99.90
20520;DHT22;53432;51.952;14.740;2022-11-24T13:17:51;16.70;99.90
20520;DHT22;53432;51.952;14.740;2022-11-24T13:20:24;16.60;99.90
20520;DHT22;53432;51.952;14.740;2022-11-24T13:22:53;16.60;99.90
20520;DHT22;53432;51.952;14.740;2022-11-24T13:25:23;16.60;99.90
20520;DHT22;53432;51.952;14.740;2022-11-24T13:27:55;16.50;99.90
20520;DHT22;53432;51.952;14.740;2022-11-24T13:30:52;16.50;99.90
20520;DHT22;53432;51.952;14.740;2022-11-24T13:33:34;16.40;99.90
20520;DHT22;53432;51.952;14.740;2022-11-24T13:39:20;16.40;99.90
20520;DHT22;53432;51.952;14.740;2022-11-24T13:42:06;16.30;99.90
20520;DHT22;53432;51.952;14.740;2022-11-24T13:44:49;16.30;99.90
20520;DHT22;53432;51.952;14.740;2022-11-24T13:47:41;16.30;99.90
20520;DHT22;53432;51.952;14.740;2022-11-24T13:51:06;16.20;99.90
20520;DHT22;53432;51.952;14.740;2022-11-24T13:53:28;16.20;99.90
20520;DHT22;53432;51.952;14.740;2022-11-24T13:56:02;16.20;99.90
20520;DHT22;53432;51.952;14.740;2022-11-24T13:58:35;16.10;99.90
20520;DHT22;53432;51.952;14.740;2022-11-24T14:01:11;16.10;99.90
20520;DHT22;53432;51.952;14.740;2022-11-24T14:03:44;16.10;99.90
20520;DHT22;53432;51.952;14.740;2022-11-24T14:06:20;16.00;99.90
20520;DHT22;53432;51.952;14.740;2022-11-24T14:08:48;15.40;99.90
20520;DHT22;53432;51.952;14.740;2022-11-24T14:11:16;15.30;99.90
20520;DHT22;53432;51.952;14.740;2022-11-24T14:13:45;15.40;99.90
20520;DHT22;53432;51.952;14.740;2022-11-24T14:16:16;15.40;99.90
20520;DHT22;53432;51.952;14.740;2022-11-24T14:18:45;15.40;99.90
20520;DHT22;53432;51.952;14.740;2022-11-24T14:21:27;15.50;99.90
20520;DHT22;53432;51.952;14.740;2022-11-24T14:23:58;15.50;99.90
20520;DHT22;53432;51.952;14.740;2022-11-24T14:26:31;15.60;99.90
20520;DHT22;53432;51.952;14.740;2022-11-24T14:29:04;15.60;99.90
20520;DHT22;53432;51.952;14.740;2022-11-24T14:31:33;15.60;99.90
20520;DHT22;53432;51.952;14.740;2022-11-24T14:34:16;15.60;99.90
20520;DHT22;53432;51.952;14.740;2022-11-24T14:36:44;15.60;99.90
20520;DHT22;53432;51.952;14.740;2022-11-24T14:39:13;15.60;99.90
20520;DHT22;53432;51.952;14.740;2022-11-24T14:41:42;15.60;99.90
20520;DHT22;53432;51.952;14.740;2022-11-24T14:44:18;15.60;99.90
20520;DHT22;53432;51.952;14.740;2022-11-24T14:46:48;15.60;99.90
20520;DHT22;53432;51.952;14.740;2022-11-24T14:49:21;15.60;99.90
20520;DHT22;53432;51.952;14.740;2022-11-24T14:51:54;15.60;99.90
20520;DHT22;53432;51.952;14.740;2022-11-24T14:54:23;15.60;99.90
20520;DHT22;53432;51.952;14.740;2022-11-24T14:56:59;15.60;99.90
20520;DHT22;53432;51.952;14.740;2022-11-24T14:59:30;15.60;99.90
20520;DHT22;53432;51.952;14.740;2022-11-24T15:02:02;15.60;99.90
20520;DHT22;53432;51.952;14.740;2022-11-24T15:04:30;15.50;99.90
20520;DHT22;53432;51.952;14.740;2022-11-24T15:07:04;15.60;99.90
20520;DHT22;53432;51.952;14.740;2022-11-24T15:09:35;15.50;99.90
20520;DHT22;53432;51.952;14.740;2022-11-24T15:12:06;15.50;99.90
20520;DHT22;53432;51.952;14.740;2022-11-24T15:14:39;15.60;99.90
20520;DHT22;53432;51.952;14.740;2022-11-24T15:17:16;15.60;99.90
20520;DHT22;53432;51.952;14.740;2022-11-24T15:19:47;15.60;99.90
20520;DHT22;53432;51.952;14.740;2022-11-24T15:22:35;15.70;99.90
20520;DHT22;53432;51.952;14.740;2022-11-24T15:25:27;15.70;99.90
20520;DHT22;53432;51.952;14.740;2022-11-24T15:27:55;15.70;99.90
20520;DHT22;53432;51.952;14.740;2022-11-24T15:30:23;15.80;99.90
20520;DHT22;53432;51.952;14.740;2022-11-24T15:32:54;15.80;99.90
20520;DHT22;53432;51.952;14.740;2022-11-24T15:35:22;15.80;99.90
20520;DHT22;53432;51.952;14.740;2022-11-24T15:37:50;15.90;99.90
20520;DHT22;53432;51.952;14.740;2022-11-24T15:40:18;15.90;99.90
20520;DHT22;53432;51.952;14.740;2022-11-24T15:42:49;16.00;99.90
20520;DHT22;53432;51.952;14.740;2022-11-24T15:45:19;16.00;99.90
20520;DHT22;53432;51.952;14.740;2022-11-24T15:47:47;16.00;99.90